Time;durP1;ratioP1;P1;durP2;ratioP2;P2;SDS_P1;SDS_P2;PMS_P1;PMS_P2;Temp;Humidity;BMP_temperature;BMP_pressure;BME280_temperature;BME280_humidity;BME280_pressure;Samples;Min_cycle;Max_cycle;Signal;HPM_P1;HPM_P2
2022/04/20 00:00:51;;;;;;;2.13;1.20;;;5.90;99.90;;;;;;5006876;28;20290;-78
2022/04/20 00:03:16;;;;;;;1.57;1.30;;;5.90;99.90;;;;;;5007168;28;20189;-78
2022/04/20 00:05:42;;;;;;;2.13;1.50;;;5.90;99.90;;;;;;5025080;28;20278;-79
2022/04/20 00:08:08;;;;;;;1.90;1.43;;;5.90;99.90;;;;;;5007697;28;20191;-80
2022/04/20 00:10:33;;;;;;;1.40;1.30;;;5.80;99.90;;;;;;5006848;28;20281;-78
2022/04/20 00:12:59;;;;;;;1.20;1.10;;;5.80;99.90;;;;;;5026318;28;20206;-79
2022/04/20 00:15:25;;;;;;;2.10;1.67;;;5.70;99.90;;;;;;5010030;28;20299;-78
2022/04/20 00:17:51;;;;;;;3.13;1.20;;;5.60;99.90;;;;;;5028909;28;20274;-78
2022/04/20 00:20:17;;;;;;;1.30;1.20;;;5.60;99.90;;;;;;5010580;28;20671;-78
2022/04/20 00:22:43;;;;;;;1.33;1.20;;;5.60;99.90;;;;;;5011021;28;20194;-78
2022/04/20 00:25:08;;;;;;;2.87;1.40;;;5.50;99.90;;;;;;5010681;28;20617;-80
2022/04/20 00:27:38;;;;;;;3.77;1.37;;;5.50;99.90;;;;;;5028407;28;20190;-78
2022/04/20 00:30:05;;;;;;;3.07;1.60;;;5.50;99.90;;;;;;5010393;28;20235;-79
2022/04/20 00:32:31;;;;;;;2.23;1.33;;;5.50;99.90;;;;;;5010203;28;20641;-78
2022/04/20 00:34:57;;;;;;;2.60;1.23;;;5.40;99.90;;;;;;5010530;28;20221;-78
2022/04/20 00:37:23;;;;;;;1.70;1.60;;;5.40;99.90;;;;;;5010490;28;20202;-78
2022/04/20 00:39:49;;;;;;;2.00;1.20;;;5.40;99.90;;;;;;5010312;28;20217;-78
2022/04/20 00:42:15;;;;;;;1.30;1.20;;;5.40;99.90;;;;;;5027045;28;20186;-78
2022/04/20 00:44:41;;;;;;;2.13;1.47;;;5.40;99.90;;;;;;5026683;28;20183;-78
2022/04/20 00:47:09;;;;;;;1.40;1.30;;;5.30;99.90;;;;;;5010095;28;20190;-79
2022/04/20 00:49:35;;;;;;;1.93;1.40;;;5.30;99.90;;;;;;5009902;28;20245;-81
2022/04/20 00:52:02;;;;;;;3.10;1.50;;;5.30;99.90;;;;;;5010357;28;20301;-78
2022/04/20 00:54:28;;;;;;;2.27;1.50;;;5.20;99.90;;;;;;5027328;28;20562;-78
2022/04/20 00:56:53;;;;;;;2.77;1.63;;;5.20;99.90;;;;;;5027934;28;20193;-78
2022/04/20 00:59:22;;;;;;;1.50;1.20;;;5.10;99.90;;;;;;5027476;28;20210;-80
2022/04/20 01:01:49;;;;;;;2.53;1.70;;;5.10;99.90;;;;;;5010379;28;20191;-78
2022/04/20 01:04:14;;;;;;;2.30;1.50;;;5.10;99.90;;;;;;5009621;28;20244;-80
2022/04/20 01:06:40;;;;;;;2.07;1.20;;;5.20;99.90;;;;;;5009700;28;20191;-78
2022/04/20 01:09:06;;;;;;;2.60;1.50;;;5.20;99.90;;;;;;5027522;28;20205;-80
2022/04/20 01:11:32;;;;;;;1.60;1.50;;;5.20;99.90;;;;;;5009760;28;20230;-78
2022/04/20 01:13:57;;;;;;;2.93;1.60;;;5.20;99.90;;;;;;5009537;28;20190;-79
2022/04/20 01:16:23;;;;;;;1.63;1.23;;;5.10;99.90;;;;;;5009775;28;20179;-80
2022/04/20 01:18:50;;;;;;;1.70;1.40;;;4.90;99.90;;;;;;5009197;28;20580;-78
2022/04/20 01:21:16;;;;;;;1.57;1.43;;;5.00;99.90;;;;;;5010010;28;20689;-78
2022/04/20 01:23:42;;;;;;;2.00;1.57;;;4.90;99.90;;;;;;5025749;28;20282;-79
2022/04/20 01:26:08;;;;;;;3.67;1.60;;;4.70;99.90;;;;;;5008860;28;20191;-78
2022/04/20 01:28:42;;;;;;;3.30;1.70;;;4.70;99.90;;;;;;5027179;28;20179;-78
2022/04/20 01:31:08;;;;;;;1.40;1.30;;;4.70;99.90;;;;;;5026715;28;20261;-78
2022/04/20 01:33:33;;;;;;;1.87;1.27;;;4.70;99.90;;;;;;5027499;28;20210;-78
2022/04/20 01:35:59;;;;;;;1.47;1.33;;;4.60;99.90;;;;;;5008948;28;20640;-80
2022/04/20 01:38:26;;;;;;;1.67;1.30;;;4.60;99.90;;;;;;5008644;28;20183;-79
2022/04/20 01:40:52;;;;;;;2.40;1.27;;;4.70;99.90;;;;;;5025709;28;20203;-78
2022/04/20 01:43:18;;;;;;;3.13;1.33;;;4.60;99.90;;;;;;5009318;28;21282;-78
2022/04/20 01:45:43;;;;;;;1.53;1.43;;;4.60;99.90;;;;;;5026607;28;20262;-79
2022/04/20 01:48:09;;;;;;;1.63;1.53;;;4.60;99.90;;;;;;5009119;28;20186;-79
2022/04/20 01:51:46;;;;;;;2.53;1.60;;;4.60;99.90;;;;;;5008657;28;20677;-78
2022/04/20 01:53:20;;;;;;;2.77;1.77;;;4.60;99.90;;;;;;5026414;28;20210;-78
2022/04/20 01:55:46;;;;;;;1.33;1.17;;;4.50;99.90;;;;;;5008853;28;20692;-80
2022/04/20 01:58:11;;;;;;;1.63;1.43;;;4.50;99.90;;;;;;5008935;28;20270;-78
2022/04/20 02:00:37;;;;;;;1.50;1.37;;;4.40;99.90;;;;;;5009139;28;20203;-80
2022/04/20 02:03:02;;;;;;;1.83;1.50;;;4.40;99.90;;;;;;5008311;28;20565;-79
2022/04/20 02:05:28;;;;;;;2.10;1.57;;;4.30;99.90;;;;;;5008736;28;20179;-79
2022/04/20 02:07:55;;;;;;;2.67;1.40;;;4.30;99.90;;;;;;5026422;28;20187;-79
2022/04/20 02:10:21;;;;;;;1.37;1.27;;;4.30;99.90;;;;;;5008418;28;20226;-78
2022/04/20 02:12:46;;;;;;;1.80;1.43;;;4.30;99.90;;;;;;5008908;28;20684;-78
2022/04/20 02:15:12;;;;;;;2.30;1.33;;;4.30;99.90;;;;;;5025378;28;20879;-78
2022/04/20 02:17:37;;;;;;;1.50;1.33;;;4.20;99.90;;;;;;5008078;28;20274;-78
2022/04/20 02:20:03;;;;;;;2.70;1.60;;;4.10;99.90;;;;;;5025576;28;20214;-78
2022/04/20 02:22:29;;;;;;;2.37;1.50;;;4.00;99.90;;;;;;5008974;28;20191;-79
2022/04/20 02:24:55;;;;;;;1.87;1.57;;;3.90;99.90;;;;;;5025805;28;20182;-80
2022/04/20 02:27:20;;;;;;;2.73;1.60;;;3.80;99.90;;;;;;5008208;28;20321;-78
2022/04/20 02:29:47;;;;;;;2.03;1.60;;;3.80;99.90;;;;;;5007826;28;20755;-79
2022/04/20 02:32:13;;;;;;;2.47;1.80;;;3.50;99.90;;;;;;5008428;28;20241;-79
2022/04/20 02:34:38;;;;;;;2.90;1.77;;;3.40;99.90;;;;;;5025619;28;20236;-78
2022/04/20 02:37:05;;;;;;;2.87;1.60;;;3.40;99.90;;;;;;5024172;28;20211;-80
2022/04/20 02:39:32;;;;;;;2.13;1.70;;;3.50;99.90;;;;;;5007687;28;20221;-80
2022/04/20 02:41:58;;;;;;;2.93;1.53;;;3.50;99.90;;;;;;5007666;28;20606;-79
2022/04/20 02:44:24;;;;;;;3.40;2.00;;;3.50;99.90;;;;;;5025425;28;20221;-79
2022/04/20 02:46:49;;;;;;;2.97;1.70;;;3.40;99.90;;;;;;5007761;28;20191;-78
2022/04/20 02:49:16;;;;;;;2.03;1.60;;;3.40;99.90;;;;;;5007656;28;20603;-80
2022/04/20 02:51:41;;;;;;;2.33;1.50;;;3.20;99.90;;;;;;5007635;28;20685;-78
2022/04/20 02:54:07;;;;;;;3.13;1.80;;;3.40;99.90;;;;;;5025599;28;20196;-78
2022/04/20 02:56:33;;;;;;;1.90;1.70;;;3.40;99.90;;;;;;5007408;28;20241;-78
2022/04/20 02:58:58;;;;;;;3.07;1.70;;;3.30;99.90;;;;;;5007244;28;20598;-78
2022/04/20 03:01:24;;;;;;;2.27;1.70;;;3.20;99.90;;;;;;5007723;28;20688;-78
2022/04/20 03:03:49;;;;;;;3.17;1.70;;;3.30;99.90;;;;;;5024518;28;20261;-78
2022/04/20 03:06:15;;;;;;;2.17;1.50;;;3.10;99.90;;;;;;5007582;28;20182;-79
2022/04/20 03:08:41;;;;;;;2.20;1.53;;;3.20;99.90;;;;;;5007193;28;20197;-78
2022/04/20 03:11:08;;;;;;;2.90;1.70;;;3.20;99.90;;;;;;5024206;28;20202;-79
2022/04/20 03:13:33;;;;;;;3.17;2.13;;;3.20;99.90;;;;;;5025006;28;20560;-78
2022/04/20 03:15:59;;;;;;;2.43;1.60;;;3.20;99.90;;;;;;5007128;28;20187;-78
2022/04/20 03:18:25;;;;;;;2.17;1.53;;;3.20;99.90;;;;;;5025009;28;20190;-78
2022/04/20 03:20:51;;;;;;;4.17;1.67;;;3.00;99.90;;;;;;5006781;28;20202;-79
2022/04/20 03:23:16;;;;;;;3.33;1.77;;;3.10;99.90;;;;;;5006964;28;20541;-80
2022/04/20 03:25:42;;;;;;;2.30;1.90;;;3.10;99.90;;;;;;5006292;28;20260;-79
2022/04/20 03:28:08;;;;;;;3.13;1.60;;;3.10;99.90;;;;;;5005514;28;20194;-80
2022/04/20 03:30:37;;;;;;;3.57;1.97;;;3.10;99.90;;;;;;5022642;28;20198;-82
2022/04/20 03:33:02;;;;;;;2.40;1.50;;;3.10;99.90;;;;;;5025602;28;20206;-80
2022/04/20 03:35:28;;;;;;;3.47;1.83;;;3.10;99.90;;;;;;5005351;28;20189;-78
2022/04/20 03:37:53;;;;;;;1.97;1.80;;;3.00;99.90;;;;;;5005228;28;20232;-79
2022/04/20 03:40:19;;;;;;;5.20;2.23;;;2.90;99.90;;;;;;5021279;28;20685;-80
2022/04/20 03:42:45;;;;;;;4.23;2.50;;;3.00;99.90;;;;;;5005016;28;20198;-80
2022/04/20 03:45:10;;;;;;;2.80;1.80;;;3.00;99.90;;;;;;5022839;28;20194;-80
2022/04/20 03:47:36;;;;;;;4.00;2.33;;;2.90;99.90;;;;;;5023417;28;20262;-79
2022/04/20 03:50:01;;;;;;;3.37;2.07;;;3.00;99.90;;;;;;5027998;28;20244;-79
2022/04/20 03:52:27;;;;;;;3.20;2.10;;;3.00;99.90;;;;;;5011498;28;20199;-78
2022/04/20 03:54:52;;;;;;;2.40;2.13;;;3.10;99.90;;;;;;5010670;28;20183;-78
2022/04/20 03:57:18;;;;;;;4.63;2.73;;;3.10;99.90;;;;;;5029075;28;20175;-78
2022/04/20 03:59:44;;;;;;;4.07;2.67;;;3.30;99.90;;;;;;5010603;28;20207;-79
2022/04/20 04:02:09;;;;;;;3.13;2.17;;;3.20;99.90;;;;;;5028937;28;20603;-78
2022/04/20 04:04:35;;;;;;;2.77;2.30;;;3.10;99.90;;;;;;5028249;28;20187;-78
2022/04/20 04:07:01;;;;;;;2.70;1.90;;;3.10;99.90;;;;;;5029077;28;20218;-79
2022/04/20 04:09:26;;;;;;;3.33;2.07;;;3.00;99.90;;;;;;5028271;28;20267;-78
2022/04/20 04:11:53;;;;;;;2.93;1.80;;;2.90;99.90;;;;;;5029019;28;20245;-79
2022/04/20 04:14:18;;;;;;;2.30;1.97;;;2.80;99.90;;;;;;5026875;28;20262;-78
2022/04/20 04:16:44;;;;;;;1.93;1.73;;;2.70;99.90;;;;;;5010964;28;20205;-77
2022/04/20 04:19:11;;;;;;;2.87;1.73;;;2.80;99.90;;;;;;5028438;28;20179;-82
2022/04/20 04:21:38;;;;;;;2.03;1.70;;;2.80;99.90;;;;;;5010546;28;20223;-79
2022/04/20 04:24:05;;;;;;;2.60;1.43;;;3.10;99.90;;;;;;5010709;28;21195;-79
2022/04/20 04:26:31;;;;;;;1.87;1.73;;;3.10;99.90;;;;;;5028053;28;20183;-80
2022/04/20 04:28:58;;;;;;;2.53;1.70;;;3.20;99.90;;;;;;5010534;28;20187;-77
2022/04/20 04:31:24;;;;;;;3.20;1.90;;;3.30;99.90;;;;;;5010389;28;20214;-79
2022/04/20 04:33:49;;;;;;;2.00;1.60;;;3.20;99.90;;;;;;5010241;28;20535;-78
2022/04/20 04:36:15;;;;;;;2.60;1.80;;;3.20;99.90;;;;;;5010574;28;20205;-79
2022/04/20 04:38:41;;;;;;;3.27;1.70;;;3.30;99.90;;;;;;5029043;28;20187;-78
2022/04/20 04:41:06;;;;;;;1.67;1.53;;;3.20;99.90;;;;;;5028343;28;20202;-79
2022/04/20 04:43:32;;;;;;;1.70;1.60;;;3.40;99.90;;;;;;5010772;28;20244;-79
2022/04/20 04:48:42;;;;;;;4.33;2.17;;;3.20;99.90;;;;;;5028398;28;20236;-78
2022/04/20 04:51:09;;;;;;;3.50;2.27;;;3.20;99.90;;;;;;5009955;28;20206;-80
2022/04/20 04:53:36;;;;;;;3.83;2.17;;;3.50;99.90;;;;;;5026864;28;20205;-81
2022/04/20 04:56:01;;;;;;;3.83;2.20;;;3.60;99.90;;;;;;5028662;28;21225;-79
2022/04/20 04:58:27;;;;;;;2.67;1.80;;;3.90;99.90;;;;;;5010189;28;20178;-80
2022/04/20 05:00:53;;;;;;;2.60;2.00;;;4.10;99.90;;;;;;5009382;28;20245;-79
2022/04/20 05:03:19;;;;;;;2.87;1.90;;;4.60;99.90;;;;;;5010301;28;21145;-79
2022/04/20 05:05:48;;;;;;;2.93;1.60;;;5.30;99.90;;;;;;5027813;28;20190;-79
2022/04/20 05:08:13;;;;;;;2.83;1.70;;;5.80;99.90;;;;;;5009907;28;20198;-81
2022/04/20 05:10:39;;;;;;;1.80;1.67;;;6.20;99.90;;;;;;5010005;28;21215;-79
2022/04/20 05:13:05;;;;;;;2.27;1.83;;;6.40;99.90;;;;;;5008328;28;20226;-80
2022/04/20 05:15:31;;;;;;;2.70;1.50;;;6.70;99.90;;;;;;5009291;28;20193;-79
2022/04/20 05:17:57;;;;;;;2.07;1.87;;;6.60;99.90;;;;;;5010257;28;20183;-79
2022/04/20 05:20:23;;;;;;;2.40;1.70;;;7.00;99.90;;;;;;5009283;28;20230;-79
2022/04/20 05:22:49;;;;;;;1.57;1.43;;;7.60;99.90;;;;;;5029969;28;20183;-80
2022/04/20 05:25:15;;;;;;;2.30;1.80;;;8.00;99.90;;;;;;5028291;28;20186;-80
2022/04/20 05:27:42;;;;;;;2.83;1.60;;;8.60;99.90;;;;;;5024582;28;20225;-79
2022/04/20 05:30:09;;;;;;;2.53;2.33;;;9.40;99.90;;;;;;5021576;28;20755;-84
2022/04/20 05:32:35;;;;;;;1.73;1.63;;;9.90;99.90;;;;;;5032857;28;20233;-84
2022/04/20 05:35:01;;;;;;;2.38;1.70;;;10.30;99.90;;;;;;5014361;28;20186;-79
2022/04/20 05:42:56;;;;;;;2.13;1.90;;;11.60;99.90;;;;;;5031489;28;20221;-81
2022/04/20 05:45:22;;;;;;;2.72;2.00;;;11.80;99.90;;;;;;5012900;28;21124;-83
2022/04/20 05:47:48;;;;;;;2.42;1.90;;;12.20;99.90;;;;;;5013459;28;20187;-81
2022/04/20 05:50:14;;;;;;;3.50;2.20;;;12.70;99.90;;;;;;5030574;28;20198;-81
2022/04/20 05:52:39;;;;;;;3.28;1.92;;;12.60;99.90;;;;;;5014648;28;20225;-84
2022/04/20 05:55:06;;;;;;;2.53;2.33;;;13.00;99.90;;;;;;5013983;28;20186;-82
2022/04/20 05:57:33;;;;;;;3.50;2.50;;;13.00;99.90;;;;;;5014292;28;20544;-80
2022/04/20 05:59:58;;;;;;;2.80;1.98;;;13.30;99.90;;;;;;5013234;28;20302;-82
2022/04/20 06:02:24;;;;;;;3.35;2.10;;;13.30;99.90;;;;;;5014005;28;20214;-84
2022/04/20 06:04:50;;;;;;;3.55;1.90;;;13.40;99.90;;;;;;5030346;28;20186;-83
2022/04/20 06:07:15;;;;;;;4.05;1.88;;;13.50;99.90;;;;;;5013905;28;20183;-82
2022/04/20 06:09:41;;;;;;;2.15;1.90;;;13.50;99.90;;;;;;5013986;28;20727;-83
2022/04/20 06:12:07;;;;;;;2.15;1.80;;;13.40;99.90;;;;;;5013112;28;20253;-81
2022/04/20 06:14:33;;;;;;;2.83;1.88;;;13.30;99.90;;;;;;5030538;28;20175;-79
2022/04/20 06:16:59;;;;;;;2.97;2.10;;;13.70;99.90;;;;;;5032079;28;20751;-84
2022/04/20 06:19:24;;;;;;;4.65;2.08;;;14.00;99.90;;;;;;5030423;28;20210;-84
2022/04/20 06:21:50;;;;;;;2.47;1.80;;;14.00;99.90;;;;;;5013723;28;20183;-84
2022/04/20 06:24:16;;;;;;;2.15;1.95;;;14.10;99.90;;;;;;5030939;28;20557;-80
2022/04/20 06:26:41;;;;;;;2.92;2.05;;;14.10;99.90;;;;;;5012445;28;20562;-82
2022/04/20 06:29:07;;;;;;;2.20;1.73;;;14.20;99.90;;;;;;5011795;28;20932;-82
2022/04/20 06:31:33;;;;;;;2.28;2.08;;;14.30;99.90;;;;;;5013041;28;20203;-83
2022/04/20 06:33:59;;;;;;;3.08;1.95;;;14.20;99.90;;;;;;5030854;28;20187;-83
2022/04/20 06:36:26;;;;;;;1.92;1.83;;;13.90;99.90;;;;;;5030459;28;20244;-80
2022/04/20 06:38:52;;;;;;;2.78;2.20;;;13.00;99.90;;;;;;5030395;28;20187;-82
2022/04/20 06:41:18;;;;;;;3.17;2.20;;;12.10;99.90;;;;;;5029724;28;20282;-80
2022/04/20 06:43:44;;;;;;;2.92;2.25;;;11.50;99.90;;;;;;5013234;28;20179;-80
2022/04/20 06:46:10;;;;;;;3.25;2.28;;;11.00;99.90;;;;;;5012406;28;20182;-80
2022/04/20 06:48:36;;;;;;;2.35;2.15;;;10.80;99.90;;;;;;5012307;28;20274;-81
2022/04/20 06:51:02;;;;;;;4.07;2.50;;;10.80;99.90;;;;;;5030477;28;20210;-82
2022/04/20 06:58:56;;;;;;;2.47;1.90;;;10.50;99.90;;;;;;5030382;28;20659;-82
2022/04/20 07:01:21;;;;;;;2.47;2.27;;;10.70;99.90;;;;;;5029792;28;20202;-80
2022/04/20 07:03:47;;;;;;;3.43;2.40;;;11.00;99.90;;;;;;5012182;28;20752;-80
2022/04/20 07:06:13;;;;;;;3.47;2.63;;;11.10;99.90;;;;;;5009411;28;20183;-79
2022/04/20 07:08:38;;;;;;;3.87;2.13;;;10.90;99.90;;;;;;5004849;28;20194;-78
2022/04/20 07:11:04;;;;;;;3.07;2.30;;;10.70;99.90;;;;;;5023017;28;20203;-80
2022/04/20 07:13:30;;;;;;;3.40;2.40;;;10.60;99.90;;;;;;5023129;28;20179;-82
2022/04/20 07:15:56;;;;;;;2.40;2.20;;;10.70;99.90;;;;;;5005274;28;20675;-78
2022/04/20 07:18:23;;;;;;;2.93;2.40;;;10.80;99.90;;;;;;5005174;28;20178;-81
2022/04/20 07:20:49;;;;;;;2.87;2.03;;;10.70;99.90;;;;;;5022448;28;20199;-80
2022/04/20 07:23:15;;;;;;;3.27;2.30;;;10.80;99.90;;;;;;5007088;28;20645;-80
2022/04/20 07:25:41;;;;;;;3.43;2.50;;;11.00;99.90;;;;;;5011126;28;20197;-80
2022/04/20 07:28:07;;;;;;;3.67;2.50;;;11.20;99.90;;;;;;5028965;28;20208;-81
2022/04/20 07:30:34;;;;;;;3.27;2.30;;;11.20;99.90;;;;;;5010922;28;20207;-82
2022/04/20 07:33:00;;;;;;;4.90;2.80;;;11.10;99.90;;;;;;5014225;28;20384;-80
2022/04/20 07:35:25;;;;;;;3.73;2.07;;;11.10;99.90;;;;;;5032905;28;20673;-82
2022/04/20 07:37:51;;;;;;;2.50;2.30;;;11.30;99.90;;;;;;5013814;28;20289;-83
2022/04/20 07:40:16;;;;;;;3.37;2.20;;;11.40;99.90;;;;;;5014382;28;20222;-83
2022/04/20 07:42:42;;;;;;;2.90;2.50;;;11.30;99.90;;;;;;5032154;28;20233;-81
2022/04/20 07:45:09;;;;;;;4.97;3.00;;;10.60;99.90;;;;;;5014063;28;20549;-80
2022/04/20 07:47:35;;;;;;;3.73;2.67;;;10.40;99.90;;;;;;5031110;28;20189;-82
2022/04/20 07:50:18;;;;;;;3.00;2.70;;;10.10;99.90;;;;;;5031871;28;20210;-83
2022/04/20 07:53:06;;;;;;;4.43;2.60;;;10.20;99.90;;;;;;5031479;28;20214;-82
2022/04/20 07:55:34;;;;;;;3.97;2.87;;;10.30;99.90;;;;;;5025072;28;20178;-82
2022/04/20 07:58:01;;;;;;;2.73;2.50;;;10.30;99.90;;;;;;5010276;28;20190;-80
2022/04/20 08:00:28;;;;;;;3.83;2.93;;;10.40;99.90;;;;;;5028159;28;20195;-80
2022/04/20 08:03:13;;;;;;;3.57;2.53;;;10.60;99.90;;;;;;5029362;28;20270;-81
2022/04/20 08:05:40;;;;;;;2.57;2.37;;;10.60;99.90;;;;;;5009493;28;20197;-81
2022/04/20 08:08:08;;;;;;;4.07;2.53;;;10.80;99.90;;;;;;5028511;28;20675;-81
2022/04/20 08:10:33;;;;;;;5.23;2.43;;;10.60;99.90;;;;;;5010257;28;20207;-81
2022/04/20 08:12:59;;;;;;;4.10;2.60;;;10.50;99.90;;;;;;5009406;28;20250;-78
2022/04/20 08:15:25;;;;;;;5.37;2.80;;;11.00;99.90;;;;;;5010053;28;20552;-81
2022/04/20 08:17:50;;;;;;;2.50;2.30;;;11.50;99.90;;;;;;5010633;28;20256;-80
2022/04/20 08:20:16;;;;;;;3.50;2.63;;;11.70;99.90;;;;;;5010391;28;20533;-79
2022/04/20 08:22:43;;;;;;;3.78;2.60;;;11.90;99.90;;;;;;5027128;28;20193;-81
2022/04/20 08:25:13;;;;;;;3.35;2.45;;;12.20;99.90;;;;;;5009617;28;20217;-83
2022/04/20 08:27:39;;;;;;;2.58;2.38;;;12.50;99.90;;;;;;5027612;28;20175;-81
2022/04/20 08:30:06;;;;;;;2.92;2.50;;;12.40;99.90;;;;;;5028763;28;20225;-80
2022/04/20 08:32:31;;;;;;;3.65;2.45;;;12.20;99.90;;;;;;5027159;28;20645;-80
2022/04/20 08:34:57;;;;;;;3.45;2.47;;;12.20;99.90;;;;;;5008879;28;20183;-79
2022/04/20 08:37:23;;;;;;;5.20;2.95;;;12.30;99.90;;;;;;5008997;28;20286;-80
2022/04/20 08:39:49;;;;;;;2.60;2.17;;;12.00;99.90;;;;;;5009971;28;20245;-80
2022/04/20 08:42:17;;;;;;;3.78;2.85;;;12.20;99.90;;;;;;5010477;28;20739;-80
2022/04/20 08:44:44;;;;;;;2.65;2.22;;;12.20;99.90;;;;;;5027286;28;20195;-80
2022/04/20 08:47:18;;;;;;;4.68;2.13;;;12.50;99.90;;;;;;5009566;28;20657;-81
2022/04/20 08:49:45;;;;;;;3.42;2.35;;;12.00;99.90;;;;;;5009427;28;20211;-83
2022/04/20 08:54:56;;;;;;;4.65;2.50;;;11.70;99.90;;;;;;5028252;28;20193;-80
2022/04/20 08:57:25;;;;;;;2.73;2.23;;;11.80;99.90;;;;;;5027650;28;20167;-80
2022/04/20 08:59:52;;;;;;;3.63;2.60;;;11.90;99.90;;;;;;5009755;28;20206;-81
2022/04/20 09:02:20;;;;;;;3.80;2.75;;;12.20;99.90;;;;;;5027886;28;20183;-79
2022/04/20 09:04:46;;;;;;;3.00;2.45;;;12.50;99.90;;;;;;5027934;28;20191;-80
2022/04/20 09:07:15;;;;;;;3.05;2.67;;;12.80;99.90;;;;;;5027207;28;20193;-81
2022/04/20 09:09:41;;;;;;;3.22;2.92;;;12.90;99.90;;;;;;5027102;28;20191;-80
2022/04/20 09:12:14;;;;;;;4.85;2.83;;;12.80;99.90;;;;;;5028217;28;20294;-79
2022/04/20 09:14:41;;;;;;;2.90;2.60;;;12.90;99.90;;;;;;5008630;28;20190;-77
2022/04/20 09:17:10;;;;;;;4.55;3.00;;;12.50;99.90;;;;;;5027593;28;20186;-79
2022/04/20 09:19:36;;;;;;;4.65;2.40;;;12.40;99.90;;;;;;5027197;28;20444;-80
2022/04/20 09:22:31;;;;;;;2.65;2.30;;;12.60;99.90;;;;;;5027300;28;20253;-82
2022/04/20 09:25:06;;;;;;;3.28;2.50;;;13.10;99.90;;;;;;5027262;28;20183;-79
2022/04/20 09:27:33;;;;;;;3.45;2.50;;;13.30;99.90;;;;;;5008678;28;20190;-81
2022/04/20 09:30:00;;;;;;;4.00;2.70;;;13.40;99.90;;;;;;5026909;28;20427;-79
2022/04/20 09:32:48;;;;;;;3.70;2.20;;;13.60;99.90;;;;;;5027461;28;20203;-83
2022/04/20 09:35:18;;;;;;;3.00;2.28;;;13.60;99.90;;;;;;5026963;28;20203;-84
2022/04/20 09:37:45;;;;;;;4.22;2.83;;;13.50;99.90;;;;;;5007855;28;20714;-81
2022/04/20 09:40:13;;;;;;;5.63;2.97;;;13.70;99.90;;;;;;5026200;28;20190;-85
2022/04/20 09:43:06;;;;;;;4.20;2.83;;;13.70;99.90;;;;;;5008281;28;20240;-84
2022/04/20 09:45:36;;;;;;;3.50;2.50;;;13.50;99.90;;;;;;5022561;28;20206;-83
2022/04/20 09:51:07;;;;;;;3.67;2.60;;;13.90;99.90;;;;;;5024676;28;20723;-82
2022/04/20 09:53:33;;;;;;;3.95;2.78;;;14.40;99.90;;;;;;5024143;28;20237;-81
2022/04/20 09:56:14;;;;;;;4.05;2.80;;;14.30;99.90;;;;;;5006748;28;20192;-84
2022/04/20 09:58:40;;;;;;;4.00;2.60;;;14.00;99.90;;;;;;5005998;28;20197;-81
2022/04/20 10:01:06;;;;;;;3.97;2.80;;;14.00;99.90;;;;;;5006168;28;20676;-81
2022/04/20 10:03:33;;;;;;;5.00;2.70;;;14.30;99.90;;;;;;5006375;28;20182;-81
2022/04/20 10:06:00;;;;;;;4.97;2.80;;;14.50;99.90;;;;;;5024246;28;20183;-83
2022/04/20 10:08:26;;;;;;;3.88;2.83;;;14.80;99.90;;;;;;5005606;28;20187;-81
2022/04/20 10:10:54;;;;;;;6.18;2.92;;;15.00;99.90;;;;;;5024196;28;20226;-81
2022/04/20 10:13:22;;;;;;;8.80;2.70;;;15.20;99.90;;;;;;5005815;28;20230;-82
2022/04/20 10:16:09;;;;;;;4.25;2.78;;;15.40;99.90;;;;;;5023426;28;20675;-82
2022/04/20 10:18:43;;;;;;;3.83;2.58;;;15.20;99.90;;;;;;5023147;28;20285;-82
2022/04/20 10:21:12;;;;;;;3.40;2.42;;;15.40;99.90;;;;;;5005953;28;20203;-82
2022/04/20 10:23:47;;;;;;;5.82;2.42;;;15.40;99.90;;;;;;5023169;28;20205;-82
2022/04/20 10:26:14;;;;;;;2.55;2.15;;;15.00;99.90;;;;;;5005574;28;20361;-83
2022/04/20 10:29:01;;;;;;;5.00;2.75;;;15.10;99.90;;;;;;5023163;28;20672;-83
2022/04/20 10:31:35;;;;;;;4.05;2.50;;;15.20;99.90;;;;;;5005182;28;20264;-82
2022/04/20 10:34:01;;;;;;;2.92;2.28;;;15.40;99.90;;;;;;5023122;28;20194;-82
2022/04/20 10:36:29;;;;;;;3.55;2.55;;;15.60;99.90;;;;;;5007212;28;20226;-85
2022/04/20 10:39:19;;;;;;;3.80;2.60;;;15.70;99.80;;;;;;5025666;28;20175;-83
2022/04/20 10:42:17;;;;;;;3.60;2.55;;;15.60;99.10;;;;;;5006630;28;20260;-82
2022/04/20 10:44:51;;;;;;;3.92;2.92;;;15.10;99.90;;;;;;5006522;28;20266;-82
2022/04/20 10:47:36;;;;;;;3.08;2.67;;;14.80;99.90;;;;;;5007886;28;20190;-83
2022/04/20 10:50:21;;;;;;;2.88;2.35;;;14.60;99.90;;;;;;5007905;28;20210;-82
2022/04/20 10:52:58;;;;;;;2.80;2.60;;;15.20;99.90;;;;;;5025796;28;20238;-84
2022/04/20 10:55:35;;;;;;;3.13;2.30;;;15.90;99.90;;;;;;5025941;28;20167;-83
2022/04/20 10:58:16;;;;;;;2.25;2.05;;;16.40;97.80;;;;;;5006752;28;20308;-82
2022/04/20 11:00:42;;;;;;;3.10;2.08;;;16.40;97.10;;;;;;5007990;28;20210;-84
2022/04/20 11:03:10;;;;;;;3.25;2.28;;;16.50;96.20;;;;;;5011201;28;20191;-84
2022/04/20 11:05:53;;;;;;;2.10;1.90;;;16.60;96.60;;;;;;5012416;28;20187;-84
2022/04/20 11:08:20;;;;;;;3.08;1.73;;;16.50;94.50;;;;;;5028775;28;20182;-81
2022/04/20 11:19:52;;;;;;;2.15;1.60;;;15.00;92.70;;;;;;5028591;28;20217;-84
2022/04/20 11:22:18;;;;;;;2.47;1.90;;;14.60;93.80;;;;;;5009867;28;20175;-81
2022/04/20 11:24:44;;;;;;;3.30;2.00;;;14.60;93.50;;;;;;5010151;28;20183;-85
2022/04/20 11:27:12;;;;;;;2.30;1.77;;;14.60;93.80;;;;;;5010316;28;20270;-85
2022/04/20 11:29:42;;;;;;;2.67;2.00;;;14.70;93.70;;;;;;5007367;28;20179;-83
2022/04/20 11:32:09;;;;;;;2.42;2.20;;;14.60;93.90;;;;;;5009159;28;20715;-83
2022/04/20 11:34:38;;;;;;;3.15;2.30;;;14.60;94.10;;;;;;5008293;28;20187;-85
2022/04/20 11:37:12;;;;;;;2.55;1.90;;;14.90;94.70;;;;;;5025529;28;20198;-84
2022/04/20 11:39:38;;;;;;;2.50;1.85;;;15.20;94.40;;;;;;5008579;28;20178;-85
2022/04/20 11:42:05;;;;;;;2.28;1.60;;;14.90;93.60;;;;;;5010542;28;20578;-83
2022/04/20 11:44:41;;;;;;;2.17;1.58;;;15.00;91.70;;;;;;5009952;28;20193;-85
2022/04/20 11:47:08;;;;;;;2.83;1.85;;;15.40;90.60;;;;;;5026868;28;20217;-83
2022/04/20 11:49:41;;;;;;;2.22;1.50;;;15.30;89.50;;;;;;5009884;28;20214;-82
2022/04/20 11:52:14;;;;;;;2.17;1.40;;;15.90;90.10;;;;;;5007927;28;20218;-84
2022/04/20 11:54:41;;;;;;;1.42;1.33;;;15.90;88.00;;;;;;5023305;28;20190;-83
2022/04/20 11:57:08;;;;;;;2.10;1.20;;;16.00;83.70;;;;;;5006867;28;20183;-83
2022/04/20 11:59:45;;;;;;;1.67;1.30;;;16.30;81.90;;;;;;5004726;28;20190;-83
2022/04/20 12:02:14;;;;;;;3.45;1.90;;;15.90;83.30;;;;;;5005846;28;20573;-86
2022/04/20 12:04:41;;;;;;;3.03;1.70;;;15.50;81.20;;;;;;5023848;28;20230;-83
2022/04/20 12:07:08;;;;;;;1.52;1.42;;;15.30;85.40;;;;;;5024731;28;20633;-83
2022/04/20 12:09:36;;;;;;;1.90;1.35;;;15.60;87.00;;;;;;5008692;28;20219;-84
2022/04/20 12:12:07;;;;;;;1.83;1.58;;;15.70;84.60;;;;;;5028780;28;20253;-84
2022/04/20 12:14:37;;;;;;;2.08;1.40;;;15.60;82.80;;;;;;5009674;28;20176;-84
2022/04/20 12:17:22;;;;;;;1.88;1.45;;;15.80;85.50;;;;;;5009043;28;20183;-83
2022/04/20 12:19:50;;;;;;;2.30;1.30;;;15.50;84.60;;;;;;5008770;28;20217;-85
2022/04/20 12:22:21;;;;;;;7.03;1.40;;;15.50;86.20;;;;;;5026747;28;20602;-85
2022/04/20 12:24:48;;;;;;;1.30;1.02;;;15.40;84.40;;;;;;5027102;28;20218;-83
2022/04/20 12:27:18;;;;;;;1.65;1.33;;;15.10;82.30;;;;;;5009557;28;20179;-83
2022/04/20 12:29:45;;;;;;;2.90;1.10;;;14.80;82.60;;;;;;5027883;28;20210;-83
2022/04/20 12:32:11;;;;;;;1.67;1.10;;;14.70;80.80;;;;;;5008891;28;20764;-81
2022/04/20 12:34:36;;;;;;;1.33;0.85;;;14.90;77.80;;;;;;5025265;28;20226;-84
2022/04/20 12:37:13;;;;;;;2.45;1.20;;;14.90;78.40;;;;;;5009098;28;20190;-81
2022/04/20 12:39:45;;;;;;;3.10;1.30;;;15.00;79.20;;;;;;5007950;28;20897;-81
2022/04/20 12:42:17;;;;;;;1.58;1.10;;;15.20;82.20;;;;;;5025521;28;20233;-82
2022/04/20 12:44:51;;;;;;;3.33;1.38;;;15.10;83.10;;;;;;5007237;28;20190;-80
2022/04/20 12:47:16;;;;;;;2.35;1.33;;;15.60;82.20;;;;;;5024363;28;20305;-80
2022/04/20 12:49:48;;;;;;;18.10;1.67;;;15.60;80.60;;;;;;5024845;28;20709;-80
2022/04/20 12:52:22;;;;;;;1.35;1.20;;;15.10;79.70;;;;;;5005330;28;20257;-81
2022/04/20 12:54:54;;;;;;;1.48;1.17;;;15.00;80.80;;;;;;5006517;28;20186;-81
2022/04/20 13:02:59;;;;;;;1.83;1.42;;;15.00;81.50;;;;;;5025555;28;20197;-82
2022/04/20 13:05:25;;;;;;;1.90;1.10;;;14.90;80.10;;;;;;5007390;28;20186;-82
2022/04/20 13:07:51;;;;;;;1.52;1.40;;;14.70;81.20;;;;;;5024194;28;20187;-83
2022/04/20 13:10:17;;;;;;;1.95;1.10;;;14.60;80.30;;;;;;5007053;28;20636;-84
2022/04/20 13:12:49;;;;;;;3.45;1.55;;;14.30;80.40;;;;;;5007199;28;20222;-83
2022/04/20 13:15:15;;;;;;;3.17;1.08;;;14.40;81.00;;;;;;5024473;28;20190;-82
2022/04/20 13:17:40;;;;;;;2.72;1.48;;;14.50;81.40;;;;;;5007274;28;20182;-84
2022/04/20 13:20:07;;;;;;;1.30;1.20;;;14.50;79.70;;;;;;5006400;28;20755;-82
2022/04/20 13:22:33;;;;;;;1.63;1.15;;;14.50;80.20;;;;;;5025616;28;20182;-84
2022/04/20 13:27:55;;;;;;;1.20;0.82;;;14.50;79.40;;;;;;5024864;28;20205;-85
2022/04/20 13:30:26;;;;;;;1.55;1.10;;;14.60;81.90;;;;;;5006825;28;20210;-84